Time;durP1;ratioP1;P1;durP2;ratioP2;P2;SDS_P1;SDS_P2;PMS_P1;PMS_P2;Temp;Humidity;BMP_temperature;BMP_pressure;BME280_temperature;BME280_humidity;BME280_pressure;Samples;Min_cycle;Max_cycle;Signal;HPM_P1;HPM_P2
2022/05/23 00:02:01;;;;;;;11.23;10.32;;;21.90;64.40;;;;;;5008258;28;20037;-77
2022/05/23 00:04:27;;;;;;;10.82;10.13;;;21.70;65.20;;;;;;4995043;28;20483;-78
2022/05/23 00:06:54;;;;;;;11.50;10.45;;;21.70;65.50;;;;;;4995616;28;20056;-78
2022/05/23 00:09:21;;;;;;;10.07;9.48;;;21.50;66.20;;;;;;4994246;28;20041;-77
2022/05/23 00:11:47;;;;;;;10.63;10.00;;;21.20;67.40;;;;;;5008512;28;20471;-77
2022/05/23 00:14:14;;;;;;;11.35;10.55;;;21.10;68.50;;;;;;4994542;28;20399;-77
2022/05/23 00:16:42;;;;;;;11.32;10.32;;;21.00;69.20;;;;;;4993430;28;20038;-77
2022/05/23 00:19:11;;;;;;;11.43;10.63;;;20.80;70.60;;;;;;5010950;28;20037;-77
2022/05/23 00:21:38;;;;;;;11.10;10.25;;;20.60;71.50;;;;;;4988107;28;20045;-76
2022/05/23 00:24:05;;;;;;;11.38;10.52;;;20.50;72.30;;;;;;5008995;28;20028;-77
2022/05/23 00:26:31;;;;;;;11.77;10.90;;;20.40;72.60;;;;;;5008153;28;20487;-78
2022/05/23 00:28:57;;;;;;;12.88;11.80;;;20.30;72.70;;;;;;4975644;28;20042;-77
2022/05/23 00:31:23;;;;;;;11.93;10.95;;;20.20;72.90;;;;;;5010707;28;20030;-77
2022/05/23 00:36:34;;;;;;;12.02;11.13;;;20.20;72.70;;;;;;5008657;28;20033;-77
2022/05/23 00:39:00;;;;;;;15.38;14.23;;;20.10;72.60;;;;;;4986855;28;20018;-77
2022/05/23 00:44:23;;;;;;;15.13;13.80;;;20.00;73.90;;;;;;5009865;28;20414;-77
2022/05/23 00:46:58;;;;;;;11.75;11.05;;;20.00;73.90;;;;;;4971738;28;20048;-77
2022/05/23 00:49:32;;;;;;;14.52;13.43;;;20.00;73.90;;;;;;5007520;28;20022;-77
2022/05/23 00:52:00;;;;;;;13.88;13.07;;;19.90;73.70;;;;;;4995197;28;20022;-77
2022/05/23 00:54:29;;;;;;;13.73;12.80;;;20.00;73.40;;;;;;4987124;28;20030;-77
2022/05/23 00:56:55;;;;;;;12.05;11.35;;;20.00;73.30;;;;;;4975081;28;20050;-77
2022/05/23 00:59:29;;;;;;;13.82;13.02;;;19.90;73.30;;;;;;4970945;28;20049;-77
2022/05/23 01:01:55;;;;;;;13.30;12.40;;;20.00;73.10;;;;;;4977098;28;20050;-77
2022/05/23 01:04:21;;;;;;;13.95;12.98;;;20.10;73.10;;;;;;5010764;28;20033;-77
2022/05/23 01:06:48;;;;;;;11.80;11.00;;;20.10;72.80;;;;;;5007743;28;20029;-77
2022/05/23 01:09:14;;;;;;;10.90;10.18;;;20.30;72.40;;;;;;5008288;28;20026;-78
2022/05/23 01:11:40;;;;;;;10.55;9.75;;;20.20;72.20;;;;;;5007461;28;20030;-77
2022/05/23 01:14:06;;;;;;;11.23;10.20;;;20.20;72.40;;;;;;5008699;28;20030;-78
2022/05/23 01:16:32;;;;;;;11.30;10.40;;;20.30;72.30;;;;;;4992470;28;20026;-77
2022/05/23 01:18:59;;;;;;;10.85;10.05;;;20.30;72.20;;;;;;5008443;28;20048;-77
2022/05/23 01:21:43;;;;;;;11.52;10.63;;;20.20;72.40;;;;;;5007102;28;20029;-77
2022/05/23 01:24:09;;;;;;;10.70;10.00;;;20.20;72.30;;;;;;5009645;28;20046;-77
2022/05/23 01:26:35;;;;;;;11.10;10.20;;;20.40;72.00;;;;;;5008231;28;20034;-77
2022/05/23 01:29:01;;;;;;;10.63;9.85;;;20.40;72.00;;;;;;5007317;28;20030;-77
2022/05/23 01:31:27;;;;;;;10.48;9.85;;;20.40;72.00;;;;;;5008461;28;20040;-78
2022/05/23 01:33:53;;;;;;;12.00;11.30;;;20.40;72.10;;;;;;5008261;28;20029;-77
2022/05/23 01:36:20;;;;;;;11.25;10.35;;;20.40;73.00;;;;;;5009173;28;20045;-78
2022/05/23 01:38:46;;;;;;;13.43;12.52;;;20.40;72.40;;;;;;4993151;28;20034;-77
2022/05/23 01:41:12;;;;;;;15.15;13.93;;;20.20;73.20;;;;;;4976761;28;20041;-77
2022/05/23 01:43:38;;;;;;;15.10;14.10;;;20.20;73.60;;;;;;5009971;28;20037;-77
2022/05/23 01:46:04;;;;;;;15.20;14.25;;;20.30;73.50;;;;;;5009448;28;20041;-77
2022/05/23 01:48:30;;;;;;;15.70;14.52;;;20.40;73.10;;;;;;5006889;28;20034;-77
2022/05/23 01:50:57;;;;;;;15.30;14.40;;;20.40;73.60;;;;;;5006454;28;20034;-77
2022/05/23 01:53:23;;;;;;;16.02;15.02;;;20.30;73.70;;;;;;4986219;28;20030;-77
2022/05/23 01:55:49;;;;;;;15.95;14.95;;;20.50;73.30;;;;;;4992626;28;20030;-78
2022/05/23 01:58:15;;;;;;;15.50;14.48;;;20.70;72.80;;;;;;5010133;28;20037;-77
2022/05/23 02:03:25;;;;;;;13.70;12.90;;;20.60;72.50;;;;;;5007466;28;20060;-77
2022/05/23 02:05:51;;;;;;;15.60;14.63;;;20.40;73.40;;;;;;5006362;28;20025;-77
2022/05/23 02:08:17;;;;;;;15.43;14.32;;;20.30;74.30;;;;;;5006566;28;20041;-77
2022/05/23 02:10:43;;;;;;;15.93;14.93;;;20.30;73.90;;;;;;5007721;28;20522;-77
2022/05/23 02:13:10;;;;;;;15.18;14.18;;;20.20;74.20;;;;;;5009179;28;20033;-77
2022/05/23 02:15:36;;;;;;;15.27;14.15;;;20.20;73.90;;;;;;5007186;28;20418;-77
2022/05/23 02:18:02;;;;;;;14.55;13.55;;;20.30;73.70;;;;;;4985856;28;20026;-77
2022/05/23 02:20:29;;;;;;;14.15;13.18;;;20.40;73.10;;;;;;4970226;28;20046;-77
2022/05/23 02:22:55;;;;;;;14.75;13.85;;;20.30;73.10;;;;;;5006454;28;20432;-77
2022/05/23 02:25:23;;;;;;;14.95;13.93;;;20.30;73.40;;;;;;5009817;28;20034;-77
2022/05/23 02:27:49;;;;;;;14.15;13.27;;;20.30;73.10;;;;;;5002861;28;20030;-77
2022/05/23 02:30:15;;;;;;;15.30;14.32;;;20.40;73.20;;;;;;5005897;28;20041;-77
2022/05/23 02:32:41;;;;;;;14.57;13.68;;;20.40;73.30;;;;;;4985851;28;20034;-77
2022/05/23 02:35:08;;;;;;;14.90;14.00;;;20.60;73.00;;;;;;4974814;28;20054;-77
2022/05/23 02:37:34;;;;;;;12.60;11.80;;;20.80;72.10;;;;;;4975988;28;20034;-78
2022/05/23 02:40:00;;;;;;;12.50;11.48;;;20.90;71.20;;;;;;5007200;28;20038;-77
2022/05/23 02:42:27;;;;;;;11.68;11.00;;;21.00;71.00;;;;;;4976139;28;20045;-78
2022/05/23 02:44:53;;;;;;;11.95;11.02;;;21.10;70.40;;;;;;5006201;28;20386;-77
2022/05/23 02:47:20;;;;;;;11.77;10.98;;;21.30;70.10;;;;;;5007205;28;20030;-77
2022/05/23 02:49:47;;;;;;;12.18;11.27;;;21.30;69.80;;;;;;5007822;28;20041;-77
2022/05/23 02:52:13;;;;;;;12.65;11.85;;;21.30;69.50;;;;;;5009170;28;20022;-77
2022/05/23 02:54:39;;;;;;;12.40;11.68;;;21.30;69.80;;;;;;5006185;28;20808;-77
2022/05/23 02:57:05;;;;;;;12.18;11.30;;;21.40;69.40;;;;;;5007136;28;20030;-77
2022/05/23 02:59:32;;;;;;;12.27;11.55;;;21.40;69.20;;;;;;5006074;28;20030;-77
2022/05/23 03:04:42;;;;;;;11.70;10.90;;;21.50;68.80;;;;;;5010122;28;20041;-77
2022/05/23 03:07:09;;;;;;;12.57;11.43;;;21.40;69.20;;;;;;4988833;28;20045;-77
2022/05/23 03:09:35;;;;;;;12.40;11.50;;;21.30;69.40;;;;;;5004540;28;20041;-78
2022/05/23 03:12:01;;;;;;;13.32;12.52;;;21.20;70.10;;;;;;5007076;28;20037;-77
2022/05/23 03:14:27;;;;;;;12.82;12.07;;;21.10;70.30;;;;;;5007158;28;20518;-78
2022/05/23 03:16:54;;;;;;;12.68;11.85;;;21.20;70.10;;;;;;4989147;28;20038;-78
2022/05/23 03:19:20;;;;;;;14.75;13.65;;;21.00;71.20;;;;;;5010298;28;20039;-77
2022/05/23 03:27:15;;;;;;;15.38;14.40;;;20.90;71.50;;;;;;5007490;28;20034;-77
2022/05/23 03:29:41;;;;;;;15.18;14.07;;;20.80;72.30;;;;;;4991875;28;20107;-77
2022/05/23 03:32:07;;;;;;;16.23;15.00;;;20.70;72.90;;;;;;5006901;28;20030;-77
2022/05/23 03:34:33;;;;;;;14.75;13.85;;;20.80;72.50;;;;;;5011575;28;20121;-77
2022/05/23 03:36:59;;;;;;;15.32;14.23;;;20.90;72.40;;;;;;5011551;28;20356;-77
2022/05/23 03:39:25;;;;;;;14.65;13.77;;;20.80;73.20;;;;;;5010311;28;20468;-77
2022/05/23 03:41:53;;;;;;;15.02;14.13;;;20.70;73.50;;;;;;5010177;28;20053;-77
2022/05/23 03:44:19;;;;;;;14.75;13.75;;;20.50;74.50;;;;;;5008988;28;20483;-77
2022/05/23 03:46:45;;;;;;;14.48;13.48;;;20.50;74.70;;;;;;5009062;28;20404;-77
2022/05/23 03:49:11;;;;;;;13.70;12.65;;;20.50;74.40;;;;;;5011801;28;20038;-77
2022/05/23 03:51:37;;;;;;;15.27;14.25;;;20.50;74.40;;;;;;5010266;28;20037;-77
2022/05/23 03:54:03;;;;;;;12.32;11.43;;;20.30;74.90;;;;;;5009009;28;20030;-77
2022/05/23 03:56:30;;;;;;;15.35;13.98;;;20.30;74.90;;;;;;4995117;28;20395;-77
2022/05/23 03:58:56;;;;;;;13.15;12.23;;;20.40;74.70;;;;;;5008518;28;20049;-77
2022/05/23 04:01:23;;;;;;;14.00;13.02;;;20.40;74.70;;;;;;5012282;28;20026;-77
2022/05/23 04:03:50;;;;;;;12.55;11.63;;;20.40;75.10;;;;;;5009332;28;20037;-77
2022/05/23 04:06:16;;;;;;;11.55;10.77;;;20.30;75.90;;;;;;4971725;28;20033;-77
2022/05/23 04:08:42;;;;;;;12.25;11.18;;;20.20;75.80;;;;;;5009806;28;20026;-77
2022/05/23 04:11:08;;;;;;;11.43;10.60;;;20.30;75.00;;;;;;5009971;28;20041;-77
2022/05/23 04:13:34;;;;;;;11.02;10.23;;;20.20;75.80;;;;;;5012002;28;20034;-77
2022/05/23 04:16:02;;;;;;;10.90;10.07;;;19.90;76.60;;;;;;5010232;28;20034;-77
2022/05/23 04:18:28;;;;;;;11.38;10.48;;;20.00;76.30;;;;;;5008286;28;20033;-77
2022/05/23 04:20:57;;;;;;;11.07;10.07;;;20.00;76.10;;;;;;4987892;28;20026;-77
2022/05/23 04:23:23;;;;;;;11.45;10.55;;;20.10;76.10;;;;;;5008264;28;20045;-77
2022/05/23 04:25:49;;;;;;;11.07;10.38;;;20.10;75.90;;;;;;4993228;28;20406;-76
2022/05/23 04:28:16;;;;;;;10.68;9.88;;;20.10;76.50;;;;;;5011563;28;20033;-77
2022/05/23 04:30:43;;;;;;;10.65;9.80;;;20.00;76.60;;;;;;5007225;28;20037;-77
2022/05/23 04:35:54;;;;;;;10.95;9.40;;;19.70;77.90;;;;;;5010738;28;20394;-77
2022/05/23 04:38:20;;;;;;;10.13;9.43;;;19.50;78.50;;;;;;4993162;28;20022;-77
2022/05/23 04:40:46;;;;;;;10.10;9.35;;;19.40;78.50;;;;;;5009494;28;20043;-78
2022/05/23 04:43:12;;;;;;;10.30;9.57;;;19.40;78.40;;;;;;4994318;28;20050;-77
2022/05/23 04:45:38;;;;;;;10.73;9.68;;;19.40;78.80;;;;;;4970694;28;20050;-77
2022/05/23 04:50:50;;;;;;;10.32;9.55;;;19.50;78.10;;;;;;5010422;28;20398;-77
2022/05/23 04:53:16;;;;;;;10.70;9.90;;;19.70;77.80;;;;;;4976087;28;20045;-77
2022/05/23 04:55:43;;;;;;;11.10;10.38;;;19.80;77.30;;;;;;5010316;28;20037;-77
2022/05/23 04:58:11;;;;;;;10.13;9.43;;;20.00;76.80;;;;;;5011354;28;20021;-77
2022/05/23 05:00:39;;;;;;;10.63;9.65;;;20.20;76.30;;;;;;5006814;28;20037;-76
2022/05/23 05:03:06;;;;;;;11.02;10.13;;;20.30;76.00;;;;;;4987131;28;20596;-77
2022/05/23 05:05:33;;;;;;;10.63;9.93;;;20.30;76.00;;;;;;5007613;28;20034;-77
2022/05/23 05:07:59;;;;;;;11.43;10.43;;;20.30;76.10;;;;;;5007805;28;20701;-77
2022/05/23 05:10:26;;;;;;;11.05;10.35;;;20.20;76.10;;;;;;4994048;28;20053;-77
2022/05/23 05:12:53;;;;;;;12.50;11.65;;;20.20;77.10;;;;;;5008227;28;20030;-77
2022/05/23 05:15:19;;;;;;;11.95;10.95;;;20.20;76.70;;;;;;5007573;28;20037;-76
2022/05/23 05:17:45;;;;;;;12.00;11.20;;;20.20;76.40;;;;;;4986752;28;20403;-77
2022/05/23 05:20:15;;;;;;;12.60;11.40;;;20.20;76.70;;;;;;5008453;28;20034;-77
2022/05/23 05:22:41;;;;;;;10.93;10.02;;;20.30;76.60;;;;;;4992489;28;20399;-77
2022/05/23 05:25:08;;;;;;;10.80;10.00;;;20.30;76.80;;;;;;5009372;28;20030;-77
2022/05/23 05:27:34;;;;;;;11.32;10.57;;;20.30;76.90;;;;;;4986594;28;20038;-77
2022/05/23 05:30:00;;;;;;;12.93;11.70;;;20.30;76.60;;;;;;4969659;28;20041;-77
2022/05/23 05:32:38;;;;;;;11.38;10.52;;;20.30;76.60;;;;;;4986068;28;20043;-77
2022/05/23 05:35:32;;;;;;;11.60;10.52;;;20.20;77.30;;;;;;5007287;28;20029;-77
2022/05/23 05:38:04;;;;;;;11.90;11.05;;;20.10;77.30;;;;;;4992658;28;20034;-77
2022/05/23 05:40:31;;;;;;;12.25;11.00;;;20.20;77.00;;;;;;4992895;28;20041;-77
2022/05/23 05:43:00;;;;;;;12.15;10.75;;;20.30;77.00;;;;;;5007635;28;20042;-77
2022/05/23 05:45:31;;;;;;;11.98;10.98;;;20.20;77.20;;;;;;4970193;28;20045;-77
2022/05/23 05:47:57;;;;;;;12.27;11.35;;;20.20;77.40;;;;;;5000454;28;20371;-77
2022/05/23 05:50:26;;;;;;;11.95;11.05;;;20.20;77.40;;;;;;4986409;28;20034;-77
2022/05/23 05:52:53;;;;;;;12.77;11.80;;;20.10;77.20;;;;;;4975856;28;20026;-77
2022/05/23 05:55:19;;;;;;;12.63;11.52;;;20.10;77.30;;;;;;4992916;28;20057;-77
2022/05/23 05:57:45;;;;;;;13.23;12.13;;;20.10;78.10;;;;;;4985678;28;20026;-77
2022/05/23 06:00:12;;;;;;;15.35;11.63;;;20.10;77.90;;;;;;5006434;28;20038;-77
2022/05/23 06:02:38;;;;;;;13.35;12.18;;;20.20;77.70;;;;;;5009330;28;20038;-76
2022/05/23 06:05:04;;;;;;;13.10;11.80;;;20.20;77.40;;;;;;5009622;28;20037;-77
2022/05/23 06:13:01;;;;;;;13.05;11.95;;;20.10;78.00;;;;;;4996354;28;20514;-77
2022/05/23 06:15:27;;;;;;;13.63;12.73;;;20.20;78.00;;;;;;4985416;28;20491;-77
2022/05/23 06:17:53;;;;;;;13.25;12.15;;;20.30;77.90;;;;;;5009486;28;20033;-77
2022/05/23 06:20:20;;;;;;;14.55;13.45;;;20.30;77.40;;;;;;5007809;28;20034;-77
2022/05/23 06:22:46;;;;;;;15.13;13.65;;;20.30;77.20;;;;;;5007378;28;20023;-77
2022/05/23 06:25:14;;;;;;;14.77;13.68;;;20.40;77.50;;;;;;5009240;28;20030;-78
2022/05/23 06:27:40;;;;;;;14.13;12.57;;;20.30;77.90;;;;;;5007359;28;20033;-77
2022/05/23 06:30:07;;;;;;;15.18;13.85;;;20.30;77.50;;;;;;5007170;28;20033;-77
2022/05/23 06:32:33;;;;;;;14.15;13.13;;;20.30;77.70;;;;;;4985646;28;20038;-77
2022/05/23 06:34:59;;;;;;;15.30;14.10;;;20.30;78.00;;;;;;5006656;28;20049;-77
2022/05/23 06:37:25;;;;;;;14.73;13.32;;;20.20;77.70;;;;;;4992794;28;20029;-77
2022/05/23 06:39:51;;;;;;;14.10;12.80;;;20.20;77.70;;;;;;5008110;28;20045;-78
2022/05/23 06:42:18;;;;;;;15.00;13.60;;;20.30;78.10;;;;;;5007105;28;20037;-78
2022/05/23 06:44:44;;;;;;;14.30;13.20;;;20.30;78.00;;;;;;5006213;28;20476;-78
2022/05/23 06:47:11;;;;;;;14.57;13.13;;;20.30;79.00;;;;;;4972986;28;20035;-78
2022/05/23 06:49:37;;;;;;;14.75;13.48;;;20.00;79.40;;;;;;4991943;28;20039;-78
2022/05/23 06:52:03;;;;;;;14.40;13.18;;;19.90;80.40;;;;;;5007638;28;20056;-78
2022/05/23 06:54:29;;;;;;;14.35;13.25;;;19.90;80.30;;;;;;5006206;28;20061;-78
2022/05/23 06:56:56;;;;;;;14.35;13.05;;;19.90;80.20;;;;;;5005578;28;20026;-77
2022/05/23 06:59:22;;;;;;;14.43;13.13;;;19.90;80.40;;;;;;5006222;28;20032;-78
2022/05/23 07:01:48;;;;;;;16.08;14.32;;;19.90;80.50;;;;;;5007491;28;23614;-78
2022/05/23 07:04:14;;;;;;;15.50;13.90;;;19.90;80.70;;;;;;5008859;28;20045;-78
2022/05/23 07:12:27;;;;;;;13.90;12.68;;;20.00;80.70;;;;;;5012440;28;20041;-78
2022/05/23 07:14:54;;;;;;;14.50;13.30;;;20.00;81.00;;;;;;4996990;28;20026;-77
2022/05/23 07:17:21;;;;;;;15.77;14.27;;;20.00;80.50;;;;;;5009763;28;20316;-77
2022/05/23 07:19:48;;;;;;;15.18;13.88;;;20.10;80.30;;;;;;5011518;28;20955;-77
2022/05/23 07:22:14;;;;;;;16.42;14.75;;;20.10;80.10;;;;;;5012468;28;20026;-77
2022/05/23 07:24:41;;;;;;;16.50;15.20;;;20.00;80.40;;;;;;5009105;28;20058;-78
2022/05/23 07:27:07;;;;;;;18.30;15.55;;;20.10;80.50;;;;;;5009421;28;20033;-78
2022/05/23 07:29:33;;;;;;;16.88;15.57;;;20.00;80.60;;;;;;4988755;28;20034;-78
2022/05/23 07:31:59;;;;;;;16.75;15.35;;;20.00;80.90;;;;;;5009240;28;20049;-78
2022/05/23 07:34:25;;;;;;;16.63;15.23;;;20.00;81.00;;;;;;4995260;28;20090;-78
2022/05/23 07:36:51;;;;;;;16.77;15.38;;;19.90;80.50;;;;;;5009744;28;20029;-78
2022/05/23 07:39:18;;;;;;;16.70;15.15;;;20.00;80.90;;;;;;5009976;28;20030;-78
2022/05/23 07:41:44;;;;;;;15.82;14.32;;;19.80;81.60;;;;;;5008950;28;20484;-77
2022/05/23 07:44:11;;;;;;;13.20;12.10;;;19.70;80.90;;;;;;4976460;28;20054;-77
2022/05/23 07:46:37;;;;;;;13.40;11.98;;;19.50;80.20;;;;;;4993209;28;20026;-78
2022/05/23 07:49:04;;;;;;;12.52;11.52;;;19.10;81.40;;;;;;4994275;28;20522;-77
2022/05/23 07:51:30;;;;;;;12.90;11.88;;;18.90;82.10;;;;;;4988196;28;20029;-78
2022/05/23 08:02:11;;;;;;;12.40;11.23;;;18.60;83.70;;;;;;5009091;28;20045;-78
2022/05/23 08:04:38;;;;;;;11.82;11.02;;;18.80;83.60;;;;;;5010737;28;20112;-77
2022/05/23 08:07:09;;;;;;;11.82;10.80;;;18.80;82.90;;;;;;5010245;28;20036;-77
2022/05/23 08:09:35;;;;;;;;;;;18.90;83.40;;;;;;5008800;28;20056;-78
2022/05/23 08:12:02;;;;;;;10.82;10.10;;;18.90;83.30;;;;;;5008641;28;19909;-78
2022/05/23 08:14:28;;;;;;;10.63;9.93;;;18.90;82.90;;;;;;4988160;28;20491;-77
2022/05/23 08:16:55;;;;;;;10.18;9.48;;;19.00;82.60;;;;;;5007481;28;20403;-78
2022/05/23 08:19:21;;;;;;;10.68;9.30;;;19.00;82.30;;;;;;5011640;28;20041;-78
2022/05/23 08:21:55;;;;;;;9.70;8.95;;;19.00;82.30;;;;;;5004022;28;20065;-77
2022/05/23 08:24:21;;;;;;;9.10;8.30;;;19.00;82.30;;;;;;4987285;28;20396;-77
2022/05/23 08:26:47;;;;;;;8.38;7.90;;;19.00;82.00;;;;;;4987590;28;20026;-78
2022/05/23 08:29:13;;;;;;;8.68;8.13;;;19.00;81.80;;;;;;5008408;28;20037;-77
2022/05/23 08:31:40;;;;;;;8.90;8.30;;;18.90;81.70;;;;;;4992531;28;20041;-77
2022/05/23 08:34:06;;;;;;;9.18;8.55;;;18.90;81.70;;;;;;5011473;28;20033;-77
2022/05/23 08:36:32;;;;;;;8.85;8.35;;;19.00;81.50;;;;;;5008212;28;20053;-78
2022/05/23 08:38:58;;;;;;;9.27;8.68;;;19.00;81.10;;;;;;4994075;28;20049;-78
2022/05/23 08:41:28;;;;;;;9.10;8.40;;;19.10;80.80;;;;;;5007841;28;20050;-77
2022/05/23 08:44:05;;;;;;;8.90;8.30;;;19.00;80.70;;;;;;4994095;28;20045;-77
2022/05/23 08:46:38;;;;;;;8.50;8.00;;;19.00;80.60;;;;;;5010870;28;20029;-78
2022/05/23 08:49:08;;;;;;;8.68;8.18;;;19.00;81.00;;;;;;5009514;28;20033;-78
2022/05/23 08:51:47;;;;;;;9.10;8.40;;;18.90;81.00;;;;;;5007305;28;20029;-77
2022/05/23 08:54:47;;;;;;;8.95;8.45;;;18.90;81.10;;;;;;4975579;28;20046;-78
2022/05/23 08:57:51;;;;;;;8.70;8.13;;;18.80;80.80;;;;;;4988817;28;20479;-78
2022/05/23 09:00:30;;;;;;;8.52;7.93;;;18.60;80.80;;;;;;5020817;28;20053;-77
2022/05/23 09:02:58;;;;;;;8.38;7.88;;;18.50;81.90;;;;;;5012221;28;20407;-77
2022/05/23 09:05:32;;;;;;;9.20;8.60;;;18.60;81.50;;;;;;5012477;28;20487;-77
2022/05/23 09:08:01;;;;;;;9.20;8.60;;;18.70;81.40;;;;;;5010948;28;20030;-78
2022/05/23 09:10:38;;;;;;;11.30;10.57;;;18.80;80.80;;;;;;5009715;28;20041;-78
2022/05/23 09:13:14;;;;;;;10.32;9.63;;;18.90;80.30;;;;;;5012175;28;20030;-77
2022/05/23 09:15:40;;;;;;;10.32;9.65;;;18.80;80.20;;;;;;4984478;28;20041;-77
2022/05/23 09:18:11;;;;;;;9.85;9.25;;;18.70;80.70;;;;;;5000057;28;20034;-78
2022/05/23 09:20:47;;;;;;;12.73;11.68;;;18.70;80.60;;;;;;4998831;28;20045;-77
2022/05/23 09:23:39;;;;;;;11.23;10.52;;;18.70;80.30;;;;;;4996139;28;20037;-77
2022/05/23 09:26:16;;;;;;;10.15;9.05;;;18.70;80.70;;;;;;5006033;28;20041;-78
2022/05/23 09:28:42;;;;;;;9.80;9.13;;;18.60;80.60;;;;;;5010844;28;20529;-78
2022/05/23 09:31:26;;;;;;;8.93;8.43;;;18.30;81.50;;;;;;5011175;28;20030;-77
2022/05/23 09:33:54;;;;;;;8.43;7.93;;;18.10;81.70;;;;;;5028294;28;20037;-78
2022/05/23 09:36:23;;;;;;;8.00;7.40;;;18.00;82.10;;;;;;5007085;28;20046;-78
2022/05/23 09:39:01;;;;;;;8.60;8.02;;;18.00;82.10;;;;;;4986582;28;20360;-78
2022/05/23 09:49:56;;;;;;;8.90;8.40;;;17.90;79.90;;;;;;5012401;28;20045;-78
2022/05/23 09:52:27;;;;;;;9.27;8.75;;;17.70;80.50;;;;;;4990747;28;20429;-77
2022/05/23 09:54:56;;;;;;;9.48;8.75;;;17.60;80.70;;;;;;4987542;28;20034;-78
2022/05/23 09:57:25;;;;;;;9.40;8.75;;;17.50;80.10;;;;;;5006820;28;20030;-77
2022/05/23 09:59:59;;;;;;;10.48;9.68;;;17.30;80.80;;;;;;5007955;28;20388;-78
2022/05/23 10:02:38;;;;;;;9.95;9.25;;;17.30;81.50;;;;;;4985474;28;20042;-77
2022/05/23 10:05:06;;;;;;;9.93;9.25;;;17.30;80.60;;;;;;4990906;28;20046;-77
2022/05/23 10:07:36;;;;;;;9.32;8.73;;;17.30;80.10;;;;;;5008969;28;20498;-77
2022/05/23 10:10:18;;;;;;;9.18;8.43;;;17.30;80.40;;;;;;5009628;28;20045;-78
2022/05/23 10:12:44;;;;;;;8.75;8.05;;;17.30;80.00;;;;;;5006600;28;20034;-77
2022/05/23 10:15:20;;;;;;;9.50;8.90;;;17.20;80.30;;;;;;4979467;28;20039;-78
2022/05/23 10:17:59;;;;;;;7.82;7.18;;;17.10;80.60;;;;;;4998440;28;20494;-78
2022/05/23 10:20:39;;;;;;;7.68;7.18;;;17.10;80.10;;;;;;4985679;28;20030;-78
2022/05/23 10:23:29;;;;;;;8.85;8.25;;;17.10;80.30;;;;;;4960864;28;20046;-78
2022/05/23 10:26:16;;;;;;;8.52;8.02;;;17.20;80.70;;;;;;4991137;28;20150;-78
2022/05/23 10:28:44;;;;;;;8.15;7.63;;;17.20;81.00;;;;;;5009030;28;20038;-78
2022/05/23 10:31:32;;;;;;;8.15;7.55;;;17.40;80.50;;;;;;4992782;28;20463;-77
2022/05/23 10:34:01;;;;;;;7.60;7.10;;;17.40;79.20;;;;;;4975615;28;20042;-78
2022/05/23 10:36:29;;;;;;;8.38;7.68;;;17.20;79.50;;;;;;5003628;28;20034;-77
2022/05/23 10:44:49;;;;;;;7.10;6.70;;;17.40;80.00;;;;;;5013731;28;20060;-77
2022/05/23 10:47:37;;;;;;;7.70;7.30;;;17.40;80.00;;;;;;5009574;28;20034;-77
2022/05/23 10:50:21;;;;;;;7.47;7.00;;;17.40;80.20;;;;;;4997324;28;20027;-78
2022/05/23 10:53:03;;;;;;;7.40;6.90;;;17.50;80.00;;;;;;5011885;28;20040;-77
2022/05/23 10:55:43;;;;;;;7.38;6.88;;;17.70;79.70;;;;;;5010845;28;20492;-78
2022/05/23 10:58:21;;;;;;;7.30;6.80;;;17.70;78.70;;;;;;5012215;28;20038;-77
2022/05/23 11:01:02;;;;;;;7.63;7.03;;;17.60;79.40;;;;;;5010511;28;20277;-78
2022/05/23 11:03:39;;;;;;;6.82;6.47;;;17.50;79.40;;;;;;5009607;28;20338;-77
2022/05/23 11:06:18;;;;;;;7.00;6.53;;;17.60;78.60;;;;;;4990125;28;20061;-78
2022/05/23 11:09:22;;;;;;;7.05;6.55;;;17.60;78.80;;;;;;5010605;28;20033;-78
2022/05/23 11:12:25;;;;;;;6.97;6.22;;;17.70;77.70;;;;;;5010621;28;20411;-78
2022/05/23 11:15:05;;;;;;;7.35;6.72;;;17.70;78.20;;;;;;4991612;28;20041;-78
2022/05/23 11:17:33;;;;;;;6.75;6.35;;;17.90;78.30;;;;;;4990746;28;20062;-77
2022/05/23 11:20:10;;;;;;;7.88;7.18;;;18.00;77.70;;;;;;4961697;28;20395;-78
2022/05/23 11:22:45;;;;;;;7.25;6.85;;;18.10;78.20;;;;;;4992970;28;20065;-77
2022/05/23 11:25:27;;;;;;;8.07;7.30;;;18.30;77.50;;;;;;4975982;28;20057;-78
2022/05/23 11:33:47;;;;;;;7.45;7.05;;;18.90;76.70;;;;;;4974877;28;20045;-78
2022/05/23 11:36:23;;;;;;;8.00;7.50;;;19.20;76.40;;;;;;4972274;28;20037;-78
2022/05/23 11:38:51;;;;;;;7.75;7.22;;;19.50;73.10;;;;;;4960805;28;20820;-78
2022/05/23 11:41:29;;;;;;;8.00;7.20;;;19.60;74.20;;;;;;4964399;28;20509;-78
2022/05/23 11:43:55;;;;;;;7.68;7.18;;;19.80;74.30;;;;;;4977023;28;20038;-78
2022/05/23 11:46:46;;;;;;;8.20;7.70;;;19.90;73.50;;;;;;4981473;28;20041;-78
2022/05/23 11:49:40;;;;;;;8.10;7.60;;;20.10;72.60;;;;;;4981406;28;20034;-78
2022/05/23 11:52:12;;;;;;;8.35;7.75;;;20.20;71.50;;;;;;5006869;28;20487;-78
2022/05/23 11:54:40;;;;;;;8.30;7.80;;;20.40;69.80;;;;;;5008770;28;20038;-78
2022/05/23 11:57:06;;;;;;;8.23;7.70;;;20.20;69.90;;;;;;5008790;28;20022;-78
2022/05/23 11:59:35;;;;;;;8.52;8.00;;;20.20;70.20;;;;;;5010048;28;20110;-78
2022/05/23 12:02:07;;;;;;;8.30;7.80;;;20.00;69.70;;;;;;5009294;28;20038;-78
2022/05/23 12:04:34;;;;;;;8.50;8.00;;;20.00;70.80;;;;;;5012351;28;20042;-78
2022/05/23 12:07:00;;;;;;;8.48;8.00;;;20.00;70.60;;;;;;5009988;28;20060;-78
2022/05/23 12:09:29;;;;;;;8.65;8.15;;;20.20;71.50;;;;;;5009690;28;20034;-78
2022/05/23 12:12:40;;;;;;;9.30;8.57;;;20.20;69.60;;;;;;5008561;28;20410;-78
2022/05/23 12:15:06;;;;;;;;;;;20.20;69.00;;;;;;5009821;28;20499;-77
2022/05/23 12:17:32;;;;;;;8.63;8.02;;;20.20;67.70;;;;;;4994701;28;19909;-78
2022/05/23 12:20:00;;;;;;;9.00;8.50;;;20.10;68.30;;;;;;4992326;28;20037;-78
2022/05/23 12:22:32;;;;;;;8.70;8.20;;;20.10;68.20;;;;;;4994986;28;20050;-78
2022/05/23 12:25:08;;;;;;;9.50;8.90;;;20.30;69.50;;;;;;5010966;28;20044;-77
2022/05/23 12:27:56;;;;;;;10.15;9.32;;;20.50;67.60;;;;;;5025884;28;20398;-78
2022/05/23 12:30:35;;;;;;;10.07;9.43;;;20.70;68.60;;;;;;5010617;28;21887;-78
2022/05/23 12:33:01;;;;;;;10.68;9.90;;;20.90;66.20;;;;;;4995403;28;20048;-78
2022/05/23 12:35:30;;;;;;;11.48;10.68;;;21.00;66.60;;;;;;5010575;28;20053;-78
2022/05/23 12:37:56;;;;;;;11.10;10.40;;;21.20;64.80;;;;;;5008635;28;20026;-78
2022/05/23 12:40:39;;;;;;;11.60;10.88;;;21.10;65.30;;;;;;5011479;28;20037;-78
2022/05/23 12:43:23;;;;;;;11.77;11.07;;;21.10;64.10;;;;;;4993934;28;20046;-78
2022/05/23 12:46:02;;;;;;;11.32;10.63;;;21.20;64.70;;;;;;5010442;28;20068;-78
2022/05/23 12:48:41;;;;;;;12.35;11.55;;;21.40;65.30;;;;;;4994495;28;20038;-78
2022/05/23 12:51:34;;;;;;;12.65;11.75;;;21.60;62.90;;;;;;5008009;28;20034;-78
2022/05/23 12:54:26;;;;;;;12.82;12.02;;;21.50;63.00;;;;;;5010491;28;20038;-78
2022/05/23 12:57:13;;;;;;;13.10;12.20;;;21.40;62.60;;;;;;4989059;28;20021;-78
2022/05/23 13:00:03;;;;;;;13.50;12.60;;;21.40;62.10;;;;;;5009808;28;20041;-78
2022/05/23 13:02:29;;;;;;;14.05;12.88;;;21.50;63.40;;;;;;4993238;28;20060;-78
2022/05/23 13:05:19;;;;;;;13.70;12.82;;;21.50;63.00;;;;;;5007390;28;20050;-78
2022/05/23 13:08:03;;;;;;;13.75;12.68;;;21.60;62.70;;;;;;4995273;28;20416;-77
2022/05/23 13:10:29;;;;;;;13.30;12.40;;;21.60;62.40;;;;;;4991109;28;20494;-78
2022/05/23 13:13:20;;;;;;;14.48;13.48;;;21.70;63.30;;;;;;5010890;28;20026;-78
2022/05/23 13:15:46;;;;;;;14.63;13.55;;;21.80;61.70;;;;;;4975914;28;20034;-78
2022/05/23 13:23:48;;;;;;;14.10;13.23;;;22.10;60.50;;;;;;4989538;28;20045;-78
2022/05/23 13:26:14;;;;;;;15.00;14.10;;;22.10;60.10;;;;;;4991051;28;20050;-78
2022/05/23 13:28:41;;;;;;;14.05;13.35;;;22.20;59.80;;;;;;5010032;28;20089;-78
2022/05/23 13:31:25;;;;;;;17.00;16.10;;;22.40;58.50;;;;;;5008594;28;20034;-78
2022/05/23 13:33:52;;;;;;;13.05;12.25;;;22.20;57.50;;;;;;5007557;28;20049;-78
2022/05/23 13:36:18;;;;;;;13.00;12.10;;;22.20;58.20;;;;;;4986249;28;20032;-78
2022/05/23 13:39:00;;;;;;;13.75;12.85;;;22.20;58.40;;;;;;5008317;28;20033;-78
2022/05/23 13:41:28;;;;;;;13.38;12.55;;;22.20;57.80;;;;;;5006365;28;20026;-78
2022/05/23 13:43:54;;;;;;;12.38;11.68;;;22.20;57.80;;;;;;5008557;28;20037;-78
2022/05/23 13:46:46;;;;;;;13.25;12.45;;;22.20;58.10;;;;;;4993048;28;20056;-78
2022/05/23 13:49:33;;;;;;;13.25;12.27;;;22.40;58.50;;;;;;5009216;28;20034;-78
2022/05/23 13:52:08;;;;;;;13.13;12.23;;;22.60;58.40;;;;;;5009962;28;20049;-78
2022/05/23 13:54:50;;;;;;;13.60;12.52;;;22.60;56.50;;;;;;5006701;28;20030;-78
2022/05/23 13:57:17;;;;;;;12.60;11.90;;;22.50;57.00;;;;;;5006340;28;20033;-78